Latest Coastal Weather Observations for Charles Point

IDD60701

Issued at 3:45 am CST Sunday 31 August 2014 (issued every 10 minutes, with the page automatically refreshed every 10 minutes)

About coastal observations | Map of coastal stations | Coastal observations for NT | Marine services | Other Formats
Station Details ID: 014031 Name: CHARLES POINT Lat: -12.39 Lon: 130.63 Height: 14.0 m
Data from the previous 72 hours. | See also: Recent months for locations in Northern Territory
Date/Time
CST
Temp

°C
Wind Pressure Rain
since 9am
mm
Weather Cloud Vis
km
Sea
Height
m
Swell
Dir
 
Speed
knots
Gust
knots
hPa Trend Height
m
Period
s
Dir
31/03:30am 20.4 ESE 2 4 1012.8 - 0.0 - - - - - - -
31/03:00am 20.1 SE 2 2 1012.8 - 0.0 - - - - - - -
31/02:30am 20.1 E 2 2 1013.1 - 0.0 - - - - - - -
31/02:00am 20.1 ENE 1 2 1013.3 - 0.0 - - - - - - -
31/01:30am 20.6 ENE 1 2 1013.3 - 0.0 - - - - - - -
31/01:00am 21.4 E 1 4 1013.5 - 0.0 - - - - - - -
31/12:30am 21.9 SSW 1 2 1013.5 - 0.0 - - - - - - -
31/12:00am 23.0 SSW 4 6 1013.4 - 0.0 - - - - - - -
 
Date/Time
CST
Temp

°C
Wind Pressure Rain
since 9am
mm
Weather Cloud Vis
km
Sea
Height
m
Swell
Dir
 
Speed
knots
Gust
knots
hPa Trend Height
m
Period
s
Dir
30/11:30pm 22.4 SSW 5 7 1013.1 - 0.0 - - - - - - -
30/11:00pm 22.3 SSW 4 7 1013.1 - 0.0 - - - - - - -
30/10:30pm 22.5 SSW 5 7 1013.1 - 0.0 - - - - - - -
30/10:00pm 22.5 SSW 5 6 1013.1 - 0.0 - - - - - - -
30/09:30pm 22.5 SSW 5 6 1013.2 - 0.0 - - - - - - -
30/09:00pm 22.0 SSW 4 5 1013.0 - 0.0 - - - - - - -
30/08:30pm 22.0 SSW 3 5 1012.8 - 0.0 - - - - - - -
30/08:00pm 22.5 SW 3 5 1012.5 - 0.0 - - - - - - -
30/07:30pm 22.5 SW 3 4 1012.2 - 0.0 - - - - - - -
30/07:00pm 23.6 WSW 2 3 1012.0 - 0.0 - - - - - - -
30/06:30pm 25.6 WNW 2 4 1011.8 - 0.0 - - - - - - -
30/06:00pm 27.0 NNW 3 5 1011.5 - 0.0 - - - - - - -
30/05:30pm 27.1 NNW 5 6 1011.3 - 0.0 - - - - - - -
30/05:00pm 27.2 NNW 6 9 1011.2 - 0.0 - - - - - - -
30/04:30pm 27.3 NNW 6 8 1011.1 - 0.0 - - - - - - -
30/04:00pm 27.8 NNW 6 9 1011.0 - 0.0 - - - - - - -
30/03:30pm 27.9 NNW 6 9 1011.1 - 0.0 - - - - - - -
30/03:00pm 27.6 N 7 9 1011.4 - 0.0 - - - - - - -
30/02:30pm 27.0 N 8 10 1011.8 - 0.0 - - - - - - -
30/02:00pm 26.9 N 7 8 1012.2 - 0.0 - - - - - - -
30/01:30pm 26.5 N 7 8 1012.8 - 0.0 - - - - - - -
30/01:00pm 26.6 N 5 6 1013.5 - 0.0 - - - - - - -
30/12:30pm 26.4 N 3 5 1014.1 - 0.0 - - - - - - -
30/12:00pm 26.2 N 3 4 1014.8 - 0.0 - - - - - - -
30/11:30am 26.5 NNE 3 4 1015.5 - 0.0 - - - - - - -
30/11:00am 26.2 NNE 2 3 1015.9 - 0.0 - - - - - - -
30/10:30am 25.9 NNE 2 3 1016.1 - 0.0 - - - - - - -
30/10:00am 25.5 N 2 3 1016.2 - 0.0 - - - - - - -
30/09:30am 25.1 NW 2 2 1016.1 - 0.0 - - - - - - -
30/09:00am 24.6 NNW 1 2 1015.8 - 0.0 - - - - - - -
30/08:30am 23.5 CALM 0 1 1015.5 - 0.0 - - - - - - -
30/08:00am 21.2 CALM 0 0 1015.4 - 0.0 - - - - - - -
30/07:30am 19.3 E 1 2 1015.2 - 0.0 - - - - - - -
30/07:00am 19.8 E 1 3 1014.9 - 0.0 - - - - - - -
30/06:30am 20.2 E 1 2 1014.7 - 0.0 - - - - - - -
30/06:00am 20.2 E 1 2 1014.6 - 0.0 - - - - - - -
30/05:30am 20.5 E 2 3 1014.2 - 0.0 - - - - - - -
30/05:00am 20.6 E 1 2 1014.0 - 0.0 - - - - - - -
30/04:30am 21.4 SE 3 6 1013.9 - 0.0 - - - - - - -
30/04:00am 20.4 SSW 4 5 1013.6 - 0.0 - - - - - - -
30/03:30am 19.7 S 3 3 1013.7 - 0.0 - - - - - - -
30/03:00am 19.6 SSW 3 4 1013.8 - 0.0 - - - - - - -
30/02:30am 19.0 S 3 4 1013.9 - 0.0 - - - - - - -
30/02:00am 19.7 SSW 3 4 1014.1 - 0.0 - - - - - - -
30/01:30am 20.2 SSW 3 4 1014.3 - 0.0 - - - - - - -
30/01:00am 20.5 WSW 2 3 1014.5 - 0.0 - - - - - - -
30/12:30am 21.0 WSW 2 4 1014.4 - 0.0 - - - - - - -
30/12:00am 21.0 SW 2 4 1014.5 - 0.0 - - - - - - -
 
Date/Time
CST
Temp

°C
Wind Pressure Rain
since 9am
mm
Weather Cloud Vis
km
Sea
Height
m
Swell
Dir
 
Speed
knots
Gust
knots
hPa Trend Height
m
Period
s
Dir
29/11:30pm 21.5 SW 3 5 1014.5 - 0.0 - - - - - - -
29/11:00pm 21.4 SW 3 5 1014.4 - 0.0 - - - - - - -
29/10:30pm 21.1 SW 3 4 1014.3 - 0.0 - - - - - - -
29/10:00pm 21.4 SW 3 5 1014.4 - 0.0 - - - - - - -
29/09:30pm 21.9 SW 3 5 1014.3 - 0.0 - - - - - - -
29/09:00pm 21.9 WSW 3 4 1014.0 - 0.0 - - - - - - -
29/08:30pm 22.1 WSW 3 5 1013.7 - 0.0 - - - - - - -
29/08:00pm 22.6 WSW 3 5 1013.4 - 0.0 - - - - - - -
29/07:30pm 22.8 WSW 3 4 1013.3 - 0.0 - - - - - - -
29/07:00pm 23.8 WSW 2 3 1013.2 - 0.0 - - - - - - -
29/06:30pm 25.3 W 3 6 1013.0 - 0.0 - - - - - - -
29/06:00pm 26.6 NW 5 7 1012.8 - 0.0 - - - - - - -
29/05:30pm 26.7 NW 6 8 1012.6 - 0.0 - - - - - - -
29/05:00pm 27.0 NW 7 9 1012.5 - 0.0 - - - - - - -
29/04:30pm 27.2 NW 6 9 1012.4 - 0.0 - - - - - - -
29/04:00pm 27.5 NW 7 10 1012.6 - 0.0 - - - - - - -
29/03:30pm 28.1 NW 8 10 1012.9 - 0.0 - - - - - - -
29/03:00pm 27.8 WNW 9 11 1013.0 - 0.0 - - - - - - -
29/02:30pm 28.0 WNW 10 12 1013.0 - 0.0 - - - - - - -
29/02:00pm 30.6 SSW 4 8 1013.3 - 0.0 - - - - - - -
29/01:30pm 30.8 E 5 10 1013.5 - 0.0 - - - - - - -
29/01:00pm 30.2 ESE 6 11 1014.0 - 0.0 - - - - - - -
29/12:30pm 29.9 E 5 9 1014.6 - 0.0 - - - - - - -
29/12:00pm 27.0 NE 6 9 1015.0 - 0.0 - - - - - - -
29/11:30am 26.5 NE 5 7 1015.5 - 0.0 - - - - - - -
29/11:00am 26.4 NE 4 6 1015.7 - 0.0 - - - - - - -
29/10:30am 26.1 ENE 4 5 1016.1 - 0.0 - - - - - - -
29/10:00am 25.3 ENE 3 4 1016.1 - 0.0 - - - - - - -
29/09:30am 25.5 ENE 2 3 1016.1 - 0.0 - - - - - - -
29/09:00am 24.8 CALM 0 3 1015.9 - 0.0 - - - - - - -
29/08:30am 24.0 CALM 0 0 1015.8 - 0.0 - - - - - - -
29/08:00am 20.1 CALM 0 0 1015.6 - 0.0 - - - - - - -
29/07:30am 17.9 CALM 0 0 1015.3 - 0.0 - - - - - - -
29/07:00am 17.5 S 3 4 1015.1 - 0.0 - - - - - - -
29/06:30am 17.4 S 3 4 1014.8 - 0.0 - - - - - - -
29/06:00am 17.8 S 3 3 1014.5 - 0.0 - - - - - - -
29/05:30am 18.2 SW 1 2 1014.1 - 0.0 - - - - - - -
29/05:00am 18.6 CALM 0 0 1014.0 - 0.0 - - - - - - -
29/04:30am 18.2 SW 2 3 1013.9 - 0.0 - - - - - - -
29/04:00am 18.7 SW 2 2 1013.8 - 0.0 - - - - - - -
29/03:30am 19.0 CALM 0 0 1013.8 - 0.0 - - - - - - -
29/03:00am 19.1 CALM 0 0 1013.7 - 0.0 - - - - - - -
29/02:30am 18.9 CALM 0 0 1013.7 - 0.0 - - - - - - -
29/02:00am 19.2 CALM 0 0 1013.6 - 0.0 - - - - - - -
29/01:30am 19.5 CALM 0 0 1013.8 - 0.0 - - - - - - -
29/01:00am 19.8 CALM 0 2 1014.0 - 0.0 - - - - - - -
29/12:30am 19.4 SSW 3 4 1014.4 - 0.0 - - - - - - -
29/12:00am 19.8 SSW 3 5 1014.4 - 0.0 - - - - - - -
 
Date/Time
CST
Temp

°C
Wind Pressure Rain
since 9am
mm
Weather Cloud Vis
km
Sea
Height
m
Swell
Dir
 
Speed
knots
Gust
knots
hPa Trend Height
m
Period
s
Dir
28/11:30pm 19.8 SW 3 5 1014.6 - 0.0 - - - - - - -
28/11:00pm 20.5 SSW 4 5 1014.6 - 0.0 - - - - - - -
28/10:30pm 19.9 SSW 3 4 1014.4 - 0.0 - - - - - - -
28/10:00pm 20.6 SSW 4 5 1014.3 - 0.0 - - - - - - -
28/09:30pm 21.0 SSW 4 5 1014.2 - 0.0 - - - - - - -
28/09:00pm 21.2 WSW 3 5 1013.8 - 0.0 - - - - - - -
28/08:30pm 20.9 SW 3 4 1013.8 - 0.0 - - - - - - -
28/08:00pm 21.3 SW 3 4 1013.6 - 0.0 - - - - - - -
28/07:30pm 21.3 SW 3 4 1013.4 - 0.0 - - - - - - -
28/07:00pm 22.6 CALM 0 0 1013.0 - 0.0 - - - - - - -
28/06:30pm 25.1 N 1 2 1012.7 - 0.0 - - - - - - -
28/06:00pm 26.4 N 4 5 1012.4 - 0.0 - - - - - - -
28/05:30pm 26.4 NNE 6 8 1012.1 - 0.0 - - - - - - -
28/05:00pm 26.4 N 7 11 1011.9 - 0.0 - - - - - - -
28/04:30pm 26.4 N 8 10 1011.8 - 0.0 - - - - - - -
28/04:00pm 26.4 N 8 10 1012.0 - 0.0 - - - - - - -
28/03:30pm 26.8 NNE 8 12 1012.0 - 0.0 - - - - - - -
28/03:00pm 26.8 NNE 9 13 1012.0 - 0.0 - - - - - - -
28/02:30pm 26.8 N 13 16 1012.2 - 0.0 - - - - - - -
28/02:00pm 30.9 ENE 7 10 1012.6 - 0.0 - - - - - - -
28/01:30pm 30.5 E 6 10 1013.1 - 0.0 - - - - - - -
28/01:00pm 30.0 E 7 13 1013.6 - 0.0 - - - - - - -
28/12:30pm 29.0 E 8 12 1014.0 - 0.0 - - - - - - -
28/12:00pm 29.1 E 8 13 1014.5 - 0.0 - - - - - - -
28/11:30am 28.6 E 6 12 1015.1 - 0.0 - - - - - - -
28/11:00am 27.8 ESE 9 16 1015.5 - 0.0 - - - - - - -
28/10:30am 27.3 ESE 9 15 1015.7 - 0.0 - - - - - - -
28/10:00am 27.0 ESE 7 16 1015.8 - 0.0 - - - - - - -
28/09:30am 25.7 E 3 7 1015.7 - 0.0 - - - - - - -
28/09:00am 24.6 ESE 4 8 1015.5 - 0.0 - - - - - - -
28/08:30am 23.2 S 3 4 1015.5 - 0.0 - - - - - - -
28/08:00am 21.4 SSE 4 5 1015.3 - 0.0 - - - - - - -
28/07:30am 19.3 SSE 4 5 1015.0 - 0.0 - - - - - - -
28/07:00am 18.4 SSE 4 6 1014.5 - 0.0 - - - - - - -
28/06:30am 19.3 SSE 4 6 1014.2 - 0.0 - - - - - - -
28/06:00am 19.7 SSE 4 5 1014.0 - 0.0 - - - - - - -
28/05:30am 18.9 SSE 4 5 1013.8 - 0.0 - - - - - - -
28/05:00am 18.4 SSE 3 4 1013.6 - 0.0 - - - - - - -
28/04:30am 19.7 SE 4 6 1013.4 - 0.0 - - - - - - -
28/04:00am 20.0 SE 4 5 1013.5 - 0.0 - - - - - - -

Other Formats:

Comma delimited format used in spreadsheet applications
http://www.bom.gov.au/fwo/IDD60701/IDD60701.99510.axf

JavaScript Object Notation format (JSON) in row-major order
http://www.bom.gov.au/fwo/IDD60701/IDD60701.99510.json